LGKO/KGS METAR and TAF weather

Enter ICAO airport designator
Station Type Date Time Source
LGKO METAR 2020/07/04 08:20 UTC NOAA

LGKO 040820Z 29008KT CAVOK 29/20 Q1008


Station Type Date Time Source
LGKO Decoded METAR 2020/07/04 08:20 UTC NOAA

Kos Airport , Greece (LGKO) 36-47N 027-04E
Jul 04, 2020 - 04:20 AM EDT / 2020.07.04 0820 UTC
Wind: from the WNW (290 degrees) at 9 MPH (8 KT):0
Visibility: greater than 7 mile(s):0
Temperature: 84 F (29 C)
Dew Point: 68 F (20 C)
Relative Humidity: 58%
Pressure (altimeter): 29.77 in. Hg (1008 hPa)
ob: LGKO 040820Z 29008KT CAVOK 29/20 Q1008
cycle: 8

Station Type Date Time Source
LGKO TAF 2020/07/04 06:12 UTC NOAA

TAF LGKO 040500Z 0406/0506 30013KT 9999 FEW020

Example: see airport list